首页
METAR-TAF:

METAR-TAF

机场 :

伏尔加格勒, 俄罗斯

纬度: 48-47N, 经度: 044-22E, 海拔: 145米

当前天气观测

该预报发布于47分钟前的10:30 UTC
风速4节,风向南转南东
温度 31°C
湿度 33%
气压 1009 hPa
能见度10公里或以上
1500米以下无云,无积雨云

METAR: URWW 161030Z 16002MPS CAVOK 31/13 Q1009 R06/010070 TEMPO VRB10G18MPS 1000 TSRAGR BKN005 BKN040CB

时间: 14:17 (11:17 UTC)

预报

该预报发布于3小时和19分钟前的07:58 UTC
预报有效从16日的 09点(UTC)到 16日的 18点(UTC)
风速6节,风向,有时为16节阵风
能见度10公里或以上
散云层高于4000英尺, 积雨云.
短暂存在
从 16日的 09点(UTC)到 16日的 18点(UTC)
风速12节,风向多变,有时为29节阵风
能見度: 3100
多云层高于1100英尺
多云层高于4000英尺, 积雨云.
雷暴, 小雨, 冰雹

TAF: URWW 160758Z 1609/1618 09003G08MPS 9999 SCT040CB TEMPO 1609/1618 VRB06G15MPS 3100 -TSRAGR BKN011 BKN040CB

超过4000个机场的气象观测和天气预报(METAR&TAF报告)。

可查询的气象台以黄色和红色小点在地图上表示。

将鼠标移到小点上方,可查看气象台名称。

然后点击查看天气观测和预报。

如需切换地图:点击带黑十字的绿色按钮放大地图;点击带横线的绿色按钮缩小地图;或者点击绿色箭头查看邻近地区的地图。


METAR-TAF: